createdAt,value
2017-05-11T00:00:45.475Z,99.90
2017-05-11T00:03:20.729Z,99.90
2017-05-11T00:05:55.793Z,99.90
2017-05-11T00:08:31.055Z,99.90
2017-05-11T00:11:06.250Z,99.90
2017-05-11T00:13:41.437Z,99.90
2017-05-11T00:16:16.638Z,99.90
2017-05-11T00:18:51.914Z,99.90
2017-05-11T00:21:27.152Z,99.90
2017-05-11T00:24:02.404Z,99.90
2017-05-11T00:26:37.666Z,99.90
2017-05-11T00:29:12.703Z,99.90
2017-05-11T00:31:47.854Z,99.90
2017-05-11T00:34:23.232Z,99.90
2017-05-11T00:36:59.139Z,99.90
2017-05-11T00:39:34.434Z,99.90
2017-05-11T00:42:09.628Z,99.90
2017-05-11T00:44:44.874Z,99.90
2017-05-11T00:47:19.925Z,99.90
2017-05-11T00:49:55.879Z,99.90
2017-05-11T00:52:31.819Z,99.90
2017-05-11T00:55:07.098Z,99.90
2017-05-11T00:57:42.301Z,99.90
2017-05-11T01:00:17.402Z,99.90
2017-05-11T01:02:52.631Z,99.90
2017-05-11T01:05:27.990Z,99.90
2017-05-11T01:08:03.199Z,99.90
2017-05-11T01:10:38.711Z,99.90
2017-05-11T01:13:14.754Z,99.90
2017-05-11T01:15:50.746Z,99.90
2017-05-11T01:18:25.929Z,99.90
2017-05-11T01:21:01.120Z,99.90
2017-05-11T01:23:36.367Z,99.90
2017-05-11T01:26:11.422Z,99.90
2017-05-11T01:28:47.401Z,99.90
2017-05-11T01:31:22.519Z,99.90
2017-05-11T01:33:57.785Z,99.90
2017-05-11T01:36:33.077Z,99.90
2017-05-11T01:39:08.278Z,99.90
2017-05-11T01:41:43.556Z,99.90
2017-05-11T01:44:18.683Z,99.90
2017-05-11T01:46:54.100Z,99.90
2017-05-11T01:49:29.282Z,99.90
2017-05-11T01:52:04.691Z,99.90
2017-05-11T01:54:39.879Z,99.90
2017-05-11T01:57:15.181Z,99.90
2017-05-11T01:59:50.387Z,99.90
2017-05-11T02:02:25.837Z,99.90
2017-05-11T02:05:01.042Z,99.90
2017-05-11T02:07:36.324Z,99.90
2017-05-11T02:10:11.459Z,99.90
2017-05-11T02:12:46.718Z,99.90
2017-05-11T02:15:21.994Z,99.90
2017-05-11T02:17:57.326Z,99.90
2017-05-11T02:20:32.541Z,99.90
2017-05-11T02:23:08.068Z,99.90
2017-05-11T02:25:43.319Z,99.90
2017-05-11T02:28:18.481Z,99.90
2017-05-11T02:30:53.665Z,99.90
2017-05-11T02:33:28.954Z,99.90
2017-05-11T02:36:04.068Z,99.90
2017-05-11T02:38:39.208Z,99.90
2017-05-11T02:41:14.447Z,99.90
2017-05-11T02:43:50.270Z,99.90
2017-05-11T02:46:26.200Z,99.90
2017-05-11T02:49:02.088Z,99.90
2017-05-11T02:51:37.293Z,99.90
2017-05-11T02:54:12.771Z,99.90
2017-05-11T02:56:47.892Z,99.90
2017-05-11T02:59:22.987Z,99.90
2017-05-11T03:01:58.963Z,99.90
2017-05-11T03:04:34.291Z,99.90
2017-05-11T03:07:09.388Z,99.90
2017-05-11T03:09:44.530Z,99.90
2017-05-11T03:12:19.751Z,99.90
2017-05-11T03:14:55.783Z,99.90
2017-05-11T03:17:31.718Z,99.90
2017-05-11T03:20:06.833Z,99.90
2017-05-11T03:22:41.947Z,99.90
2017-05-11T03:25:17.912Z,99.90
2017-05-11T03:27:53.166Z,99.90
2017-05-11T03:30:28.396Z,99.90
2017-05-11T03:33:03.563Z,99.90
2017-05-11T03:35:38.940Z,99.90
2017-05-11T03:38:14.100Z,99.90
2017-05-11T03:40:49.506Z,99.90
2017-05-11T03:43:24.771Z,99.90
2017-05-11T03:45:59.923Z,99.90
2017-05-11T03:48:35.257Z,99.90
2017-05-11T03:51:11.304Z,99.90
2017-05-11T03:53:46.466Z,99.90
2017-05-11T03:56:22.403Z,99.90
2017-05-11T03:58:57.634Z,99.90
2017-05-11T04:01:33.762Z,99.90
2017-05-11T04:04:08.892Z,99.90
2017-05-11T04:06:44.199Z,99.90
2017-05-11T04:09:19.415Z,99.90
2017-05-11T04:11:54.694Z,99.90
2017-05-11T04:14:29.947Z,99.90
2017-05-11T04:17:05.206Z,99.90
2017-05-11T04:19:40.405Z,99.90
2017-05-11T04:22:15.480Z,99.90
2017-05-11T04:24:50.738Z,99.90
2017-05-11T04:27:26.037Z,99.90
2017-05-11T04:30:01.099Z,99.90
2017-05-11T04:32:36.226Z,99.90
2017-05-11T04:35:11.397Z,99.90
2017-05-11T04:37:46.659Z,99.90
2017-05-11T04:40:21.761Z,99.90
2017-05-11T04:42:56.933Z,99.90
2017-05-11T04:45:32.943Z,99.90
2017-05-11T04:48:08.323Z,99.90
2017-05-11T04:50:43.584Z,99.90
2017-05-11T04:53:19.588Z,99.90
2017-05-11T04:55:54.814Z,99.90
2017-05-11T04:58:30.134Z,99.90
2017-05-11T05:01:05.357Z,99.90
2017-05-11T05:03:40.558Z,99.90
2017-05-11T05:06:15.771Z,99.90
2017-05-11T05:08:51.080Z,99.90
2017-05-11T05:11:26.360Z,99.90
2017-05-11T05:14:01.487Z,99.90
2017-05-11T05:16:37.534Z,99.90
2017-05-11T05:19:12.679Z,99.90
2017-05-11T05:21:47.823Z,99.90
2017-05-11T05:24:23.062Z,99.90
2017-05-11T05:26:59.063Z,99.90
2017-05-11T05:29:34.249Z,99.90
2017-05-11T05:32:09.334Z,99.90
2017-05-11T05:34:44.607Z,99.90
2017-05-11T05:37:19.683Z,99.90
2017-05-11T05:39:54.905Z,99.90
2017-05-11T05:42:30.158Z,99.90
2017-05-11T05:45:05.372Z,99.90
2017-05-11T05:47:40.442Z,99.90
2017-05-11T05:50:15.706Z,99.90
2017-05-11T05:52:50.967Z,99.90
2017-05-11T05:55:26.184Z,99.90
2017-05-11T05:58:02.142Z,99.90
2017-05-11T06:00:37.443Z,99.90
2017-05-11T06:03:12.862Z,99.90
2017-05-11T06:05:48.067Z,99.90
2017-05-11T06:08:23.318Z,99.90
2017-05-11T06:10:58.457Z,99.90
2017-05-11T06:13:34.005Z,99.90
2017-05-11T06:16:09.107Z,99.90
2017-05-11T06:18:44.199Z,99.90
2017-05-11T06:21:19.411Z,99.90
2017-05-11T06:23:54.865Z,99.90
2017-05-11T06:26:30.095Z,99.90
2017-05-11T06:29:05.931Z,99.90
2017-05-11T06:31:41.251Z,99.90
2017-05-11T06:34:16.545Z,99.90
2017-05-11T06:36:51.963Z,99.90
2017-05-11T06:39:27.203Z,99.90
2017-05-11T06:42:02.374Z,99.90
2017-05-11T06:44:37.614Z,99.90
2017-05-11T06:47:12.764Z,99.90
2017-05-11T06:49:47.885Z,99.90
2017-05-11T06:52:23.006Z,99.90
2017-05-11T06:54:58.259Z,99.90
2017-05-11T06:57:33.380Z,99.90
2017-05-11T07:00:08.625Z,99.90
2017-05-11T07:02:43.669Z,99.90
2017-05-11T07:05:19.291Z,99.90
2017-05-11T07:07:54.442Z,99.90
2017-05-11T07:10:29.586Z,99.90
2017-05-11T07:13:04.800Z,99.90
2017-05-11T07:15:39.895Z,99.90
2017-05-11T07:18:15.090Z,99.90
2017-05-11T07:20:50.219Z,99.90
2017-05-11T07:23:25.466Z,99.90
2017-05-11T07:26:01.410Z,99.90
2017-05-11T07:28:36.549Z,99.90
2017-05-11T07:31:12.503Z,99.90
2017-05-11T07:33:47.583Z,99.90
2017-05-11T07:36:22.877Z,99.90
2017-05-11T07:38:58.099Z,99.90
2017-05-11T07:41:33.271Z,99.90
2017-05-11T07:44:08.499Z,99.90
2017-05-11T07:46:43.607Z,99.90
2017-05-11T07:49:18.823Z,99.90
2017-05-11T07:51:54.163Z,99.90
2017-05-11T07:54:29.354Z,99.90
2017-05-11T07:57:04.673Z,99.90
2017-05-11T07:59:40.496Z,99.90
2017-05-11T08:02:15.774Z,99.90
2017-05-11T08:04:51.001Z,99.90
2017-05-11T08:07:26.246Z,99.90
2017-05-11T08:10:01.575Z,99.90
2017-05-11T08:12:36.732Z,99.90
2017-05-11T08:15:11.892Z,99.90
2017-05-11T08:17:47.098Z,99.90
2017-05-11T08:20:22.227Z,99.90
2017-05-11T08:22:57.588Z,99.90
2017-05-11T08:25:33.129Z,99.90
2017-05-11T08:28:09.045Z,99.90
2017-05-11T08:30:44.282Z,99.90
2017-05-11T08:33:20.218Z,99.90
2017-05-11T08:35:55.479Z,99.90
2017-05-11T08:38:30.762Z,99.90
2017-05-11T08:41:05.871Z,99.90
2017-05-11T08:43:41.115Z,99.90
2017-05-11T08:46:16.967Z,99.90
2017-05-11T08:48:52.051Z,99.90
2017-05-11T08:51:27.659Z,99.90
2017-05-11T08:54:02.915Z,99.90
2017-05-11T08:56:38.229Z,99.90
2017-05-11T08:59:13.472Z,99.90
2017-05-11T09:01:48.551Z,99.90
2017-05-11T09:04:23.805Z,99.90
2017-05-11T09:06:59.191Z,99.90
2017-05-11T09:09:34.319Z,99.90
2017-05-11T09:12:09.830Z,99.90
2017-05-11T09:14:45.569Z,99.90
2017-05-11T09:17:20.847Z,99.90
2017-05-11T09:19:55.895Z,99.90
2017-05-11T09:22:31.182Z,99.90
2017-05-11T09:25:06.234Z,99.90
2017-05-11T09:27:41.335Z,99.90
2017-05-11T09:30:16.567Z,99.90
2017-05-11T09:32:51.911Z,99.90
2017-05-11T09:35:27.088Z,99.90
2017-05-11T09:38:02.192Z,99.90
2017-05-11T09:40:37.326Z,99.10
2017-05-11T09:43:12.563Z,99.80
2017-05-11T09:45:47.794Z,99.90
2017-05-11T09:48:23.732Z,99.90
2017-05-11T09:50:58.956Z,99.20
2017-05-11T09:53:34.210Z,98.70
2017-05-11T09:56:09.419Z,98.60
2017-05-11T09:58:44.871Z,99.30
2017-05-11T10:01:19.980Z,98.90
2017-05-11T10:03:55.214Z,96.60
2017-05-11T10:06:30.395Z,98.30
2017-05-11T10:09:05.491Z,96.10
2017-05-11T10:11:40.575Z,98.10
2017-05-11T10:14:15.898Z,98.50
2017-05-11T10:16:51.025Z,96.10
2017-05-11T10:19:27.020Z,97.90
2017-05-11T10:22:02.247Z,98.10
2017-05-11T10:24:37.316Z,97.90
2017-05-11T10:27:12.582Z,98.10
2017-05-11T10:29:47.676Z,99.40
2017-05-11T10:32:22.886Z,99.90
2017-05-11T10:34:58.214Z,98.00
2017-05-11T10:37:33.197Z,97.90
2017-05-11T10:40:08.482Z,98.60
2017-05-11T10:42:43.714Z,97.10
2017-05-11T10:45:18.864Z,98.00
2017-05-11T10:47:54.082Z,96.20
2017-05-11T10:50:30.159Z,96.90
2017-05-11T10:53:05.390Z,99.50
2017-05-11T10:55:40.639Z,98.10
2017-05-11T10:58:15.766Z,98.20
2017-05-11T11:00:50.911Z,98.80
2017-05-11T11:03:26.917Z,97.60
2017-05-11T11:06:02.092Z,95.50
2017-05-11T11:08:37.219Z,97.80
2017-05-11T11:11:12.567Z,98.10
2017-05-11T11:13:47.894Z,98.30
2017-05-11T11:16:23.094Z,97.40
2017-05-11T11:18:58.360Z,97.00
2017-05-11T11:21:34.269Z,99.00
2017-05-11T11:24:09.514Z,97.40
2017-05-11T11:26:44.832Z,99.30
2017-05-11T11:29:20.043Z,98.90
2017-05-11T11:31:55.335Z,98.70
2017-05-11T11:34:30.519Z,97.80
2017-05-11T11:37:05.631Z,96.90
2017-05-11T11:39:40.707Z,97.80
2017-05-11T11:42:15.856Z,98.60
2017-05-11T11:44:50.951Z,97.70
2017-05-11T11:47:26.462Z,95.80
2017-05-11T11:50:01.584Z,93.50
2017-05-11T11:52:36.964Z,94.70
2017-05-11T11:55:12.166Z,91.60
2017-05-11T11:57:47.435Z,91.40
2017-05-11T12:00:22.480Z,92.30
2017-05-11T12:02:57.614Z,91.60
2017-05-11T12:05:32.851Z,90.90
2017-05-11T12:08:08.083Z,90.70
2017-05-11T12:10:43.224Z,90.00
2017-05-11T12:13:18.414Z,90.90
2017-05-11T12:15:53.604Z,90.40
2017-05-11T12:18:28.647Z,84.40
2017-05-11T12:21:03.954Z,88.40
2017-05-11T12:23:39.219Z,81.70
2017-05-11T12:26:14.585Z,84.10
2017-05-11T12:28:49.755Z,86.40
2017-05-11T12:31:24.936Z,82.60
2017-05-11T12:34:00.104Z,87.50
2017-05-11T12:36:35.268Z,81.50
2017-05-11T12:39:10.367Z,88.80
2017-05-11T12:41:45.762Z,89.60
2017-05-11T12:44:21.736Z,83.80
2017-05-11T12:46:57.009Z,82.80
2017-05-11T12:49:32.132Z,77.30
2017-05-11T12:52:07.351Z,84.20
2017-05-11T12:54:43.299Z,85.10
2017-05-11T12:57:18.454Z,85.30
2017-05-11T12:59:53.488Z,84.60
2017-05-11T13:02:28.702Z,86.00
2017-05-11T13:05:04.675Z,84.10
2017-05-11T13:07:40.663Z,85.20
2017-05-11T13:10:16.927Z,89.80
2017-05-11T13:12:52.179Z,87.30
2017-05-11T13:15:27.342Z,90.60
2017-05-11T13:18:02.432Z,89.20
2017-05-11T13:20:37.591Z,90.80
2017-05-11T13:23:13.385Z,92.50
2017-05-11T13:25:48.510Z,89.90
2017-05-11T13:28:23.828Z,90.60
2017-05-11T13:30:59.239Z,91.70
2017-05-11T13:33:34.479Z,89.90
2017-05-11T13:36:09.825Z,89.70
2017-05-11T13:38:44.946Z,91.80
2017-05-11T13:41:20.396Z,92.90
2017-05-11T13:43:55.538Z,91.70
2017-05-11T13:46:30.851Z,93.20
2017-05-11T13:49:06.120Z,92.70
2017-05-11T13:51:41.440Z,91.40
2017-05-11T13:54:16.723Z,90.10
2017-05-11T13:56:51.958Z,91.40
2017-05-11T13:59:27.290Z,88.30
2017-05-11T14:02:04.255Z,91.10
2017-05-11T14:04:39.469Z,91.60
2017-05-11T14:07:14.799Z,91.90
2017-05-11T14:09:49.933Z,90.90
2017-05-11T14:12:25.226Z,88.10
2017-05-11T14:15:00.455Z,88.10
2017-05-11T14:17:35.737Z,88.70
2017-05-11T14:20:11.139Z,91.20
2017-05-11T14:22:47.081Z,90.40
2017-05-11T14:25:22.390Z,89.30
2017-05-11T14:27:57.662Z,90.00
2017-05-11T14:30:33.639Z,88.50
2017-05-11T14:33:08.761Z,91.10
2017-05-11T14:35:44.016Z,92.00
2017-05-11T14:38:19.246Z,91.20
2017-05-11T14:40:55.155Z,90.90
2017-05-11T14:43:30.626Z,92.00
2017-05-11T14:46:05.763Z,92.90
2017-05-11T14:48:41.073Z,94.40
2017-05-11T14:51:16.284Z,94.30
2017-05-11T14:53:51.523Z,94.50
2017-05-11T14:56:26.820Z,94.90
2017-05-11T14:59:02.059Z,96.70
2017-05-11T15:01:37.403Z,95.80
2017-05-11T15:04:12.742Z,97.50
2017-05-11T15:06:47.894Z,96.20
2017-05-11T15:09:23.167Z,95.60
2017-05-11T15:11:58.282Z,96.30
2017-05-11T15:14:33.591Z,97.50
2017-05-11T15:17:08.851Z,98.70
2017-05-11T15:19:43.953Z,98.80
2017-05-11T15:22:19.875Z,98.00
2017-05-11T15:24:54.975Z,98.20
2017-05-11T15:27:30.219Z,98.30
2017-05-11T15:30:05.349Z,98.30
2017-05-11T15:32:40.556Z,99.90
2017-05-11T15:35:15.606Z,99.90
2017-05-11T15:37:50.866Z,99.90
2017-05-11T15:40:26.022Z,99.90
2017-05-11T15:43:01.362Z,99.90
2017-05-11T15:45:36.767Z,99.90
2017-05-11T15:48:11.909Z,99.90
2017-05-11T15:50:47.051Z,99.90
2017-05-11T15:53:23.063Z,99.90
2017-05-11T15:55:58.259Z,99.90
2017-05-11T15:58:33.472Z,99.90
2017-05-11T16:01:08.818Z,99.90
2017-05-11T16:03:44.265Z,99.90
2017-05-11T16:06:19.591Z,99.90
2017-05-11T16:08:55.035Z,99.90
2017-05-11T16:11:30.353Z,99.90
2017-05-11T16:14:05.538Z,99.90
2017-05-11T16:16:40.665Z,99.90
2017-05-11T16:19:15.738Z,99.90
2017-05-11T16:21:50.959Z,99.90
2017-05-11T16:24:27.174Z,99.90
2017-05-11T16:27:02.433Z,99.90
2017-05-11T16:29:37.766Z,99.90
2017-05-11T16:32:13.108Z,99.90
2017-05-11T16:34:48.611Z,99.90
2017-05-11T16:37:23.791Z,99.90
2017-05-11T16:39:59.744Z,99.90
2017-05-11T16:42:34.765Z,99.90
2017-05-11T16:45:10.025Z,99.90
2017-05-11T16:47:45.283Z,99.90
2017-05-11T16:50:20.711Z,99.90
2017-05-11T16:52:55.755Z,99.90
2017-05-11T16:55:31.184Z,99.90
2017-05-11T16:58:06.511Z,99.90
2017-05-11T17:00:41.751Z,99.90
2017-05-11T17:03:17.051Z,99.90
2017-05-11T17:05:52.442Z,99.90
2017-05-11T17:08:28.398Z,99.90
2017-05-11T17:11:03.639Z,99.90
2017-05-11T17:13:38.887Z,99.90
2017-05-11T17:16:14.225Z,99.90
2017-05-11T17:18:49.442Z,99.90
2017-05-11T17:21:24.542Z,99.90
2017-05-11T17:23:59.855Z,99.90
2017-05-11T17:26:35.154Z,99.90
2017-05-11T17:29:10.399Z,99.90
2017-05-11T17:31:45.732Z,99.90
2017-05-11T17:34:20.795Z,99.90
2017-05-11T17:36:56.664Z,99.90
2017-05-11T17:39:31.875Z,99.90
2017-05-11T17:42:07.831Z,99.90
2017-05-11T17:44:43.101Z,99.90
2017-05-11T17:47:18.478Z,99.90
2017-05-11T17:49:53.784Z,99.90
2017-05-11T17:52:29.048Z,99.90
2017-05-11T17:55:04.172Z,99.90
2017-05-11T17:57:39.467Z,99.90
2017-05-11T18:00:15.376Z,99.90
2017-05-11T18:02:50.496Z,99.90
2017-05-11T18:05:25.693Z,99.90
2017-05-11T18:08:00.982Z,99.90
2017-05-11T18:10:36.175Z,99.90
2017-05-11T18:13:12.044Z,99.90
2017-05-11T18:15:48.026Z,99.90
2017-05-11T18:18:24.125Z,99.90
2017-05-11T18:20:59.351Z,99.90
2017-05-11T18:23:34.707Z,99.90
2017-05-11T18:26:10.527Z,99.90
2017-05-11T18:28:45.737Z,99.90
2017-05-11T18:31:21.137Z,99.90
2017-05-11T18:33:56.362Z,99.90
2017-05-11T18:36:31.414Z,99.90
2017-05-11T18:39:06.574Z,99.90
2017-05-11T18:41:41.565Z,99.90
2017-05-11T18:44:17.555Z,99.90
2017-05-11T18:46:52.791Z,99.90
2017-05-11T18:49:27.932Z,99.90
2017-05-11T18:52:03.387Z,99.90
2017-05-11T18:54:38.485Z,99.90
2017-05-11T18:57:13.733Z,99.90
2017-05-11T18:59:48.965Z,99.90
2017-05-11T19:02:24.180Z,99.90
2017-05-11T19:04:59.975Z,99.90
2017-05-11T19:07:35.880Z,99.90
2017-05-11T19:10:11.157Z,99.90
2017-05-11T19:12:46.367Z,99.90
2017-05-11T19:15:21.640Z,99.90
2017-05-11T19:17:56.867Z,99.90
2017-05-11T19:20:32.945Z,99.90
2017-05-11T19:23:08.135Z,99.90
2017-05-11T19:25:43.347Z,99.90
2017-05-11T19:28:18.510Z,99.90
2017-05-11T19:30:53.773Z,99.90
2017-05-11T19:33:28.987Z,99.90
2017-05-11T19:36:04.381Z,99.90
2017-05-11T19:38:39.509Z,99.90
2017-05-11T19:41:14.803Z,99.90
2017-05-11T19:43:50.081Z,99.90
2017-05-11T19:46:25.339Z,99.90
2017-05-11T19:49:01.256Z,99.90
2017-05-11T19:51:36.484Z,99.90
2017-05-11T19:54:11.784Z,99.90
2017-05-11T19:56:47.102Z,99.90
2017-05-11T19:59:22.312Z,99.90
2017-05-11T20:01:57.635Z,99.90
2017-05-11T20:04:32.788Z,99.90
2017-05-11T20:07:08.243Z,99.90
2017-05-11T20:09:43.399Z,99.90
2017-05-11T20:12:18.600Z,99.90
2017-05-11T20:14:53.684Z,99.90
2017-05-11T20:17:28.975Z,99.90
2017-05-11T20:20:04.912Z,99.90
2017-05-11T20:22:40.020Z,99.90
2017-05-11T20:25:16.020Z,99.90
2017-05-11T20:27:51.342Z,99.90
2017-05-11T20:30:26.622Z,99.90
2017-05-11T20:33:01.726Z,99.90
2017-05-11T20:35:36.981Z,99.90
2017-05-11T20:38:12.201Z,99.90
2017-05-11T20:40:47.400Z,99.90
2017-05-11T20:43:22.716Z,99.90
2017-05-11T20:45:57.956Z,99.90
2017-05-11T20:48:33.262Z,99.90
2017-05-11T20:51:08.518Z,99.90
2017-05-11T20:53:44.607Z,99.90
2017-05-11T20:56:19.847Z,99.90
2017-05-11T20:58:55.927Z,99.90
2017-05-11T21:01:31.322Z,99.90
2017-05-11T21:04:06.510Z,99.90
2017-05-11T21:06:41.624Z,99.90
2017-05-11T21:09:16.875Z,99.90
2017-05-11T21:11:52.074Z,99.90
2017-05-11T21:14:28.149Z,99.90
2017-05-11T21:17:04.055Z,99.90
2017-05-11T21:19:39.742Z,99.90
2017-05-11T21:22:14.859Z,99.90
2017-05-11T21:24:50.145Z,99.90
2017-05-11T21:27:25.425Z,99.90
2017-05-11T21:30:00.755Z,99.90
2017-05-11T21:32:35.975Z,99.90
2017-05-11T21:35:11.263Z,99.90
2017-05-11T21:37:46.510Z,99.90
2017-05-11T21:40:21.654Z,99.90
2017-05-11T21:42:56.771Z,99.90
2017-05-11T21:45:31.998Z,99.90
2017-05-11T21:48:07.243Z,99.90
2017-05-11T21:50:42.681Z,99.90
2017-05-11T21:53:17.813Z,99.90
2017-05-11T21:55:53.278Z,99.90
2017-05-11T21:58:28.475Z,99.90
2017-05-11T22:01:03.747Z,99.90
2017-05-11T22:03:39.007Z,99.90
2017-05-11T22:06:14.351Z,99.90
2017-05-11T22:08:49.558Z,99.90
2017-05-11T22:11:24.764Z,99.90
2017-05-11T22:14:00.071Z,99.90
2017-05-11T22:16:36.030Z,99.90
2017-05-11T22:19:11.132Z,99.90
2017-05-11T22:21:46.312Z,99.90
2017-05-11T22:24:22.127Z,99.90
2017-05-11T22:26:58.267Z,99.90
2017-05-11T22:29:33.545Z,99.90
2017-05-11T22:32:08.807Z,99.90
2017-05-11T22:34:44.003Z,99.90
2017-05-11T22:37:19.382Z,99.90
2017-05-11T22:39:54.443Z,99.90
2017-05-11T22:42:30.152Z,99.90
2017-05-11T22:45:05.376Z,99.90
2017-05-11T22:47:40.828Z,99.90
2017-05-11T22:50:15.979Z,99.90
2017-05-11T22:52:51.130Z,99.90
2017-05-11T22:55:27.249Z,99.90
2017-05-11T22:58:02.587Z,99.90
2017-05-11T23:00:38.550Z,99.90
2017-05-11T23:03:13.984Z,99.90
2017-05-11T23:05:49.342Z,99.90
2017-05-11T23:08:24.662Z,99.90
2017-05-11T23:10:59.787Z,99.90
2017-05-11T23:13:36.063Z,99.90
2017-05-11T23:16:11.378Z,99.90
2017-05-11T23:18:47.471Z,99.90
2017-05-11T23:21:23.437Z,99.90
2017-05-11T23:23:58.713Z,99.90
2017-05-11T23:26:34.009Z,99.90
2017-05-11T23:29:09.958Z,99.90
2017-05-11T23:31:45.162Z,99.90
2017-05-11T23:34:20.215Z,99.90
2017-05-11T23:36:55.373Z,99.90
2017-05-11T23:39:30.551Z,99.90
2017-05-11T23:42:06.429Z,99.90
2017-05-11T23:44:41.521Z,99.90
2017-05-11T23:47:17.422Z,99.90
2017-05-11T23:49:52.632Z,99.90
2017-05-11T23:52:32.776Z,99.90
2017-05-11T23:55:08.204Z,99.90
2017-05-11T23:57:43.524Z,99.90
